sensor_id;sensor_type;location;lat;lon;timestamp;P1;durP1;ratioP1;P2;durP2;ratioP2
26516;SDS011;14190;51.342;6.338;2023-03-01T00:02:10;12.15;;;8.40;;
26516;SDS011;14190;51.342;6.338;2023-03-01T00:04:38;13.25;;;9.05;;
26516;SDS011;14190;51.342;6.338;2023-03-01T00:07:05;13.62;;;8.58;;
26516;SDS011;14190;51.342;6.338;2023-03-01T00:09:32;13.50;;;9.08;;
26516;SDS011;14190;51.342;6.338;2023-03-01T00:12:00;12.00;;;7.85;;
26516;SDS011;14190;51.342;6.338;2023-03-01T00:14:27;14.85;;;9.53;;
26516;SDS011;14190;51.342;6.338;2023-03-01T00:16:54;14.40;;;8.53;;
26516;SDS011;14190;51.342;6.338;2023-03-01T00:19:22;15.35;;;8.88;;
26516;SDS011;14190;51.342;6.338;2023-03-01T00:21:49;12.55;;;8.93;;
26516;SDS011;14190;51.342;6.338;2023-03-01T00:24:17;11.65;;;8.93;;
26516;SDS011;14190;51.342;6.338;2023-03-01T00:26:44;12.20;;;9.20;;
26516;SDS011;14190;51.342;6.338;2023-03-01T00:29:12;16.15;;;9.38;;
26516;SDS011;14190;51.342;6.338;2023-03-01T00:31:40;13.85;;;8.85;;
26516;SDS011;14190;51.342;6.338;2023-03-01T00:34:07;13.00;;;8.60;;
26516;SDS011;14190;51.342;6.338;2023-03-01T00:36:35;11.78;;;8.80;;
26516;SDS011;14190;51.342;6.338;2023-03-01T00:39:04;16.62;;;8.90;;
26516;SDS011;14190;51.342;6.338;2023-03-01T00:41:31;16.23;;;9.58;;
26516;SDS011;14190;51.342;6.338;2023-03-01T00:44:01;15.53;;;10.03;;
26516;SDS011;14190;51.342;6.338;2023-03-01T00:46:28;14.85;;;9.85;;
26516;SDS011;14190;51.342;6.338;2023-03-01T00:48:58;13.37;;;9.83;;
26516;SDS011;14190;51.342;6.338;2023-03-01T00:51:27;14.93;;;9.18;;
26516;SDS011;14190;51.342;6.338;2023-03-01T00:53:58;13.53;;;9.20;;
26516;SDS011;14190;51.342;6.338;2023-03-01T00:56:24;18.98;;;9.33;;
26516;SDS011;14190;51.342;6.338;2023-03-01T00:58:53;14.20;;;9.00;;
26516;SDS011;14190;51.342;6.338;2023-03-01T01:01:22;12.75;;;9.48;;
26516;SDS011;14190;51.342;6.338;2023-03-01T01:03:51;16.10;;;9.30;;
26516;SDS011;14190;51.342;6.338;2023-03-01T01:06:20;17.50;;;10.20;;
26516;SDS011;14190;51.342;6.338;2023-03-01T01:08:48;24.43;;;10.05;;
26516;SDS011;14190;51.342;6.338;2023-03-01T01:11:16;13.43;;;9.55;;
26516;SDS011;14190;51.342;6.338;2023-03-01T01:13:44;16.45;;;9.43;;
26516;SDS011;14190;51.342;6.338;2023-03-01T01:16:12;14.98;;;10.10;;
26516;SDS011;14190;51.342;6.338;2023-03-01T01:18:40;12.50;;;9.05;;
26516;SDS011;14190;51.342;6.338;2023-03-01T01:21:09;18.48;;;9.48;;
26516;SDS011;14190;51.342;6.338;2023-03-01T01:23:38;14.80;;;10.00;;
26516;SDS011;14190;51.342;6.338;2023-03-01T01:26:18;15.20;;;10.35;;
26516;SDS011;14190;51.342;6.338;2023-03-01T01:28:46;14.65;;;9.75;;
26516;SDS011;14190;51.342;6.338;2023-03-01T01:31:14;13.90;;;8.98;;
26516;SDS011;14190;51.342;6.338;2023-03-01T01:33:42;17.75;;;9.75;;
26516;SDS011;14190;51.342;6.338;2023-03-01T01:36:10;14.53;;;10.20;;
26516;SDS011;14190;51.342;6.338;2023-03-01T01:38:38;18.55;;;10.75;;
26516;SDS011;14190;51.342;6.338;2023-03-01T01:41:06;16.15;;;10.40;;
26516;SDS011;14190;51.342;6.338;2023-03-01T01:43:34;20.68;;;10.45;;
26516;SDS011;14190;51.342;6.338;2023-03-01T01:46:10;17.10;;;10.80;;
26516;SDS011;14190;51.342;6.338;2023-03-01T01:48:41;14.47;;;9.73;;
26516;SDS011;14190;51.342;6.338;2023-03-01T01:51:11;19.02;;;10.43;;
26516;SDS011;14190;51.342;6.338;2023-03-01T01:53:38;16.10;;;10.30;;
26516;SDS011;14190;51.342;6.338;2023-03-01T01:56:07;18.20;;;10.30;;
26516;SDS011;14190;51.342;6.338;2023-03-01T01:58:36;17.87;;;10.32;;
26516;SDS011;14190;51.342;6.338;2023-03-01T02:01:04;21.25;;;11.93;;
26516;SDS011;14190;51.342;6.338;2023-03-01T02:03:32;16.35;;;11.12;;
26516;SDS011;14190;51.342;6.338;2023-03-01T02:08:48;16.10;;;11.22;;
26516;SDS011;14190;51.342;6.338;2023-03-01T02:11:16;17.87;;;11.18;;
26516;SDS011;14190;51.342;6.338;2023-03-01T02:13:46;18.98;;;11.45;;
26516;SDS011;14190;51.342;6.338;2023-03-01T02:16:15;20.75;;;11.63;;
26516;SDS011;14190;51.342;6.338;2023-03-01T02:18:43;21.52;;;11.63;;
26516;SDS011;14190;51.342;6.338;2023-03-01T02:21:30;25.23;;;10.50;;
26516;SDS011;14190;51.342;6.338;2023-03-01T02:23:58;18.80;;;10.80;;
26516;SDS011;14190;51.342;6.338;2023-03-01T02:26:29;20.85;;;11.33;;
26516;SDS011;14190;51.342;6.338;2023-03-01T02:28:58;18.65;;;10.75;;
26516;SDS011;14190;51.342;6.338;2023-03-01T02:31:25;14.87;;;10.10;;
26516;SDS011;14190;51.342;6.338;2023-03-01T02:34:09;18.57;;;11.25;;
26516;SDS011;14190;51.342;6.338;2023-03-01T02:36:44;16.32;;;10.72;;
26516;SDS011;14190;51.342;6.338;2023-03-01T02:39:13;21.90;;;11.70;;
26516;SDS011;14190;51.342;6.338;2023-03-01T02:41:44;16.95;;;10.68;;
26516;SDS011;14190;51.342;6.338;2023-03-01T02:44:11;22.70;;;11.12;;
26516;SDS011;14190;51.342;6.338;2023-03-01T02:46:50;16.27;;;10.05;;
26516;SDS011;14190;51.342;6.338;2023-03-01T02:49:21;18.75;;;10.75;;
26516;SDS011;14190;51.342;6.338;2023-03-01T02:52:05;15.38;;;11.25;;
26516;SDS011;14190;51.342;6.338;2023-03-01T02:57:05;18.40;;;11.18;;
26516;SDS011;14190;51.342;6.338;2023-03-01T02:59:33;19.80;;;10.98;;
26516;SDS011;14190;51.342;6.338;2023-03-01T03:02:03;18.32;;;11.80;;
26516;SDS011;14190;51.342;6.338;2023-03-01T03:04:31;17.70;;;10.43;;
26516;SDS011;14190;51.342;6.338;2023-03-01T03:06:58;15.50;;;10.00;;
26516;SDS011;14190;51.342;6.338;2023-03-01T03:09:25;14.15;;;9.70;;
26516;SDS011;14190;51.342;6.338;2023-03-01T03:11:53;15.85;;;10.53;;
26516;SDS011;14190;51.342;6.338;2023-03-01T03:14:21;16.93;;;11.50;;
26516;SDS011;14190;51.342;6.338;2023-03-01T03:16:50;21.35;;;11.35;;
26516;SDS011;14190;51.342;6.338;2023-03-01T03:19:18;17.05;;;10.90;;
26516;SDS011;14190;51.342;6.338;2023-03-01T03:21:46;18.30;;;12.00;;
26516;SDS011;14190;51.342;6.338;2023-03-01T03:24:13;18.15;;;10.50;;
26516;SDS011;14190;51.342;6.338;2023-03-01T03:26:41;15.35;;;11.22;;
26516;SDS011;14190;51.342;6.338;2023-03-01T03:29:08;17.30;;;9.80;;
26516;SDS011;14190;51.342;6.338;2023-03-01T03:31:35;21.15;;;10.75;;
26516;SDS011;14190;51.342;6.338;2023-03-01T03:34:03;19.85;;;12.47;;
26516;SDS011;14190;51.342;6.338;2023-03-01T03:36:30;18.85;;;11.35;;
26516;SDS011;14190;51.342;6.338;2023-03-01T03:38:57;19.02;;;11.40;;
26516;SDS011;14190;51.342;6.338;2023-03-01T03:41:25;18.20;;;11.50;;
26516;SDS011;14190;51.342;6.338;2023-03-01T03:43:53;21.75;;;12.43;;
26516;SDS011;14190;51.342;6.338;2023-03-01T03:46:22;18.62;;;12.05;;
26516;SDS011;14190;51.342;6.338;2023-03-01T03:48:50;20.80;;;12.10;;
26516;SDS011;14190;51.342;6.338;2023-03-01T03:51:18;18.62;;;11.43;;
26516;SDS011;14190;51.342;6.338;2023-03-01T03:53:45;21.30;;;11.85;;
26516;SDS011;14190;51.342;6.338;2023-03-01T03:56:13;22.35;;;11.18;;
26516;SDS011;14190;51.342;6.338;2023-03-01T03:58:40;17.75;;;11.22;;
26516;SDS011;14190;51.342;6.338;2023-03-01T04:01:08;18.62;;;10.93;;
26516;SDS011;14190;51.342;6.338;2023-03-01T04:03:35;18.98;;;12.10;;
26516;SDS011;14190;51.342;6.338;2023-03-01T04:06:02;19.00;;;12.68;;
26516;SDS011;14190;51.342;6.338;2023-03-01T04:08:30;21.23;;;12.45;;
26516;SDS011;14190;51.342;6.338;2023-03-01T04:10:59;19.57;;;12.55;;
26516;SDS011;14190;51.342;6.338;2023-03-01T04:13:28;18.92;;;11.30;;
26516;SDS011;14190;51.342;6.338;2023-03-01T04:15:56;19.25;;;11.30;;
26516;SDS011;14190;51.342;6.338;2023-03-01T04:18:23;20.20;;;11.48;;
26516;SDS011;14190;51.342;6.338;2023-03-01T04:20:52;22.87;;;11.78;;
26516;SDS011;14190;51.342;6.338;2023-03-01T04:23:21;18.65;;;11.57;;
26516;SDS011;14190;51.342;6.338;2023-03-01T04:25:50;17.82;;;11.20;;
26516;SDS011;14190;51.342;6.338;2023-03-01T04:28:25;19.00;;;12.47;;
26516;SDS011;14190;51.342;6.338;2023-03-01T04:30:51;21.85;;;11.83;;
26516;SDS011;14190;51.342;6.338;2023-03-01T04:33:19;17.15;;;11.08;;
26516;SDS011;14190;51.342;6.338;2023-03-01T04:35:46;19.37;;;11.15;;
26516;SDS011;14190;51.342;6.338;2023-03-01T04:38:16;18.73;;;12.23;;
26516;SDS011;14190;51.342;6.338;2023-03-01T04:40:44;20.65;;;11.75;;
26516;SDS011;14190;51.342;6.338;2023-03-01T04:43:12;22.48;;;11.65;;
26516;SDS011;14190;51.342;6.338;2023-03-01T04:45:42;21.12;;;13.22;;
26516;SDS011;14190;51.342;6.338;2023-03-01T04:48:10;19.27;;;11.70;;
26516;SDS011;14190;51.342;6.338;2023-03-01T04:50:37;23.90;;;11.88;;
26516;SDS011;14190;51.342;6.338;2023-03-01T04:53:05;20.97;;;12.07;;
26516;SDS011;14190;51.342;6.338;2023-03-01T04:55:33;18.92;;;11.80;;
26516;SDS011;14190;51.342;6.338;2023-03-01T04:58:00;20.02;;;11.48;;
26516;SDS011;14190;51.342;6.338;2023-03-01T05:00:28;21.20;;;12.05;;
26516;SDS011;14190;51.342;6.338;2023-03-01T05:02:56;22.67;;;12.28;;
26516;SDS011;14190;51.342;6.338;2023-03-01T05:05:28;21.02;;;12.45;;
26516;SDS011;14190;51.342;6.338;2023-03-01T05:07:54;21.42;;;12.85;;
26516;SDS011;14190;51.342;6.338;2023-03-01T05:10:22;21.77;;;12.40;;
26516;SDS011;14190;51.342;6.338;2023-03-01T05:12:50;19.67;;;12.43;;
26516;SDS011;14190;51.342;6.338;2023-03-01T05:15:18;21.27;;;12.05;;
26516;SDS011;14190;51.342;6.338;2023-03-01T05:17:48;18.62;;;11.08;;
26516;SDS011;14190;51.342;6.338;2023-03-01T05:20:16;22.22;;;12.03;;
26516;SDS011;14190;51.342;6.338;2023-03-01T05:22:43;18.42;;;12.47;;
26516;SDS011;14190;51.342;6.338;2023-03-01T05:25:10;26.60;;;12.65;;
26516;SDS011;14190;51.342;6.338;2023-03-01T05:27:39;25.25;;;13.25;;
26516;SDS011;14190;51.342;6.338;2023-03-01T05:30:07;22.20;;;13.20;;
26516;SDS011;14190;51.342;6.338;2023-03-01T05:32:42;19.40;;;12.23;;
26516;SDS011;14190;51.342;6.338;2023-03-01T05:35:13;26.17;;;11.65;;
26516;SDS011;14190;51.342;6.338;2023-03-01T05:37:46;18.77;;;12.00;;
26516;SDS011;14190;51.342;6.338;2023-03-01T05:40:14;19.02;;;11.73;;
26516;SDS011;14190;51.342;6.338;2023-03-01T05:42:45;22.55;;;12.95;;
26516;SDS011;14190;51.342;6.338;2023-03-01T05:45:13;21.48;;;12.68;;
26516;SDS011;14190;51.342;6.338;2023-03-01T05:47:40;23.25;;;12.05;;
26516;SDS011;14190;51.342;6.338;2023-03-01T05:50:15;23.45;;;12.43;;
26516;SDS011;14190;51.342;6.338;2023-03-01T05:52:50;19.87;;;12.23;;
26516;SDS011;14190;51.342;6.338;2023-03-01T05:55:16;21.55;;;12.60;;
26516;SDS011;14190;51.342;6.338;2023-03-01T05:57:46;20.08;;;12.53;;
26516;SDS011;14190;51.342;6.338;2023-03-01T06:00:14;20.60;;;12.95;;
26516;SDS011;14190;51.342;6.338;2023-03-01T06:02:42;19.55;;;12.68;;
26516;SDS011;14190;51.342;6.338;2023-03-01T06:05:10;21.68;;;13.83;;
26516;SDS011;14190;51.342;6.338;2023-03-01T06:07:38;17.80;;;12.78;;
26516;SDS011;14190;51.342;6.338;2023-03-01T06:10:05;22.27;;;13.18;;
26516;SDS011;14190;51.342;6.338;2023-03-01T06:12:34;22.48;;;13.28;;
26516;SDS011;14190;51.342;6.338;2023-03-01T06:15:02;21.15;;;12.03;;
26516;SDS011;14190;51.342;6.338;2023-03-01T06:17:31;25.60;;;13.20;;
26516;SDS011;14190;51.342;6.338;2023-03-01T06:19:59;24.12;;;12.58;;
26516;SDS011;14190;51.342;6.338;2023-03-01T06:22:29;26.07;;;12.98;;
26516;SDS011;14190;51.342;6.338;2023-03-01T06:24:56;22.95;;;12.53;;
26516;SDS011;14190;51.342;6.338;2023-03-01T06:27:23;19.45;;;12.37;;
26516;SDS011;14190;51.342;6.338;2023-03-01T06:29:51;29.60;;;20.23;;
26516;SDS011;14190;51.342;6.338;2023-03-01T06:32:18;21.50;;;12.93;;
26516;SDS011;14190;51.342;6.338;2023-03-01T06:34:46;22.58;;;13.13;;
26516;SDS011;14190;51.342;6.338;2023-03-01T06:37:13;22.45;;;13.62;;
26516;SDS011;14190;51.342;6.338;2023-03-01T06:39:40;21.68;;;13.15;;
26516;SDS011;14190;51.342;6.338;2023-03-01T06:42:08;25.27;;;14.18;;
26516;SDS011;14190;51.342;6.338;2023-03-01T06:44:39;28.55;;;14.10;;
26516;SDS011;14190;51.342;6.338;2023-03-01T06:47:06;25.48;;;15.75;;
26516;SDS011;14190;51.342;6.338;2023-03-01T06:49:33;24.57;;;15.10;;
26516;SDS011;14190;51.342;6.338;2023-03-01T06:52:02;21.70;;;14.07;;
26516;SDS011;14190;51.342;6.338;2023-03-01T06:54:29;24.43;;;13.88;;
26516;SDS011;14190;51.342;6.338;2023-03-01T06:56:57;23.57;;;13.25;;
26516;SDS011;14190;51.342;6.338;2023-03-01T06:59:24;24.20;;;14.40;;
26516;SDS011;14190;51.342;6.338;2023-03-01T07:01:52;25.77;;;14.45;;
26516;SDS011;14190;51.342;6.338;2023-03-01T07:04:19;21.93;;;13.65;;
26516;SDS011;14190;51.342;6.338;2023-03-01T07:06:46;24.92;;;14.05;;
26516;SDS011;14190;51.342;6.338;2023-03-01T07:09:15;20.80;;;13.10;;
26516;SDS011;14190;51.342;6.338;2023-03-01T07:11:45;26.68;;;13.95;;
26516;SDS011;14190;51.342;6.338;2023-03-01T07:14:15;28.35;;;14.40;;
26516;SDS011;14190;51.342;6.338;2023-03-01T07:16:42;23.15;;;14.18;;
26516;SDS011;14190;51.342;6.338;2023-03-01T07:19:10;27.80;;;14.75;;
26516;SDS011;14190;51.342;6.338;2023-03-01T07:21:37;29.55;;;15.08;;
26516;SDS011;14190;51.342;6.338;2023-03-01T07:24:08;22.65;;;14.00;;
26516;SDS011;14190;51.342;6.338;2023-03-01T07:26:35;24.92;;;14.03;;
26516;SDS011;14190;51.342;6.338;2023-03-01T07:29:03;23.95;;;12.00;;
26516;SDS011;14190;51.342;6.338;2023-03-01T07:31:31;24.80;;;14.15;;
26516;SDS011;14190;51.342;6.338;2023-03-01T07:33:59;23.57;;;13.88;;
26516;SDS011;14190;51.342;6.338;2023-03-01T07:36:26;21.40;;;12.98;;
26516;SDS011;14190;51.342;6.338;2023-03-01T07:38:54;34.10;;;13.65;;
26516;SDS011;14190;51.342;6.338;2023-03-01T07:41:22;24.00;;;13.78;;
26516;SDS011;14190;51.342;6.338;2023-03-01T07:43:49;20.15;;;13.40;;
26516;SDS011;14190;51.342;6.338;2023-03-01T07:46:16;24.37;;;13.40;;
26516;SDS011;14190;51.342;6.338;2023-03-01T07:48:45;24.55;;;13.38;;
26516;SDS011;14190;51.342;6.338;2023-03-01T07:51:13;22.27;;;13.95;;
26516;SDS011;14190;51.342;6.338;2023-03-01T07:53:40;22.95;;;13.58;;
26516;SDS011;14190;51.342;6.338;2023-03-01T07:56:09;28.98;;;13.90;;
26516;SDS011;14190;51.342;6.338;2023-03-01T07:58:37;26.27;;;14.40;;
26516;SDS011;14190;51.342;6.338;2023-03-01T08:01:05;24.77;;;14.95;;
26516;SDS011;14190;51.342;6.338;2023-03-01T08:03:33;26.52;;;14.58;;
26516;SDS011;14190;51.342;6.338;2023-03-01T08:06:01;24.60;;;13.88;;
26516;SDS011;14190;51.342;6.338;2023-03-01T08:08:28;27.15;;;14.58;;
26516;SDS011;14190;51.342;6.338;2023-03-01T08:10:57;27.45;;;14.40;;
26516;SDS011;14190;51.342;6.338;2023-03-01T08:13:24;22.58;;;13.68;;
26516;SDS011;14190;51.342;6.338;2023-03-01T08:15:52;20.35;;;12.78;;
26516;SDS011;14190;51.342;6.338;2023-03-01T08:18:20;24.63;;;14.07;;
26516;SDS011;14190;51.342;6.338;2023-03-01T08:20:48;26.52;;;13.32;;
26516;SDS011;14190;51.342;6.338;2023-03-01T08:23:15;23.22;;;14.15;;
26516;SDS011;14190;51.342;6.338;2023-03-01T08:25:42;28.87;;;13.68;;
26516;SDS011;14190;51.342;6.338;2023-03-01T08:28:10;20.88;;;12.55;;
26516;SDS011;14190;51.342;6.338;2023-03-01T08:30:37;23.38;;;12.40;;
26516;SDS011;14190;51.342;6.338;2023-03-01T08:33:05;22.42;;;13.28;;
26516;SDS011;14190;51.342;6.338;2023-03-01T08:35:32;22.42;;;13.05;;
26516;SDS011;14190;51.342;6.338;2023-03-01T08:37:59;23.25;;;13.03;;
26516;SDS011;14190;51.342;6.338;2023-03-01T08:40:27;24.63;;;13.93;;
26516;SDS011;14190;51.342;6.338;2023-03-01T08:42:54;27.07;;;12.58;;
26516;SDS011;14190;51.342;6.338;2023-03-01T08:45:21;19.05;;;12.58;;
26516;SDS011;14190;51.342;6.338;2023-03-01T08:47:51;26.20;;;12.73;;
26516;SDS011;14190;51.342;6.338;2023-03-01T08:50:18;28.40;;;14.63;;
26516;SDS011;14190;51.342;6.338;2023-03-01T08:52:45;21.90;;;13.83;;
26516;SDS011;14190;51.342;6.338;2023-03-01T08:55:13;22.80;;;12.03;;
26516;SDS011;14190;51.342;6.338;2023-03-01T08:57:42;36.30;;;18.23;;
26516;SDS011;14190;51.342;6.338;2023-03-01T09:00:10;22.27;;;13.05;;
26516;SDS011;14190;51.342;6.338;2023-03-01T09:02:37;18.85;;;12.20;;
26516;SDS011;14190;51.342;6.338;2023-03-01T09:05:05;23.12;;;12.33;;
26516;SDS011;14190;51.342;6.338;2023-03-01T09:07:32;20.80;;;12.18;;
26516;SDS011;14190;51.342;6.338;2023-03-01T09:10:00;20.27;;;12.60;;
26516;SDS011;14190;51.342;6.338;2023-03-01T09:12:27;22.75;;;12.05;;
26516;SDS011;14190;51.342;6.338;2023-03-01T09:14:55;24.95;;;12.00;;
26516;SDS011;14190;51.342;6.338;2023-03-01T09:17:22;21.97;;;12.25;;
26516;SDS011;14190;51.342;6.338;2023-03-01T09:19:50;21.37;;;11.75;;
26516;SDS011;14190;51.342;6.338;2023-03-01T09:22:17;18.98;;;13.08;;
26516;SDS011;14190;51.342;6.338;2023-03-01T09:24:44;24.85;;;13.78;;
26516;SDS011;14190;51.342;6.338;2023-03-01T09:27:12;21.82;;;12.95;;
26516;SDS011;14190;51.342;6.338;2023-03-01T09:29:40;23.55;;;11.80;;
26516;SDS011;14190;51.342;6.338;2023-03-01T09:32:08;21.07;;;13.70;;
26516;SDS011;14190;51.342;6.338;2023-03-01T09:34:35;25.48;;;13.55;;
26516;SDS011;14190;51.342;6.338;2023-03-01T09:37:04;21.35;;;13.18;;
26516;SDS011;14190;51.342;6.338;2023-03-01T09:39:32;27.95;;;13.40;;
26516;SDS011;14190;51.342;6.338;2023-03-01T09:42:00;26.30;;;13.30;;
26516;SDS011;14190;51.342;6.338;2023-03-01T09:46:58;26.42;;;13.28;;
26516;SDS011;14190;51.342;6.338;2023-03-01T09:49:34;23.27;;;12.45;;
26516;SDS011;14190;51.342;6.338;2023-03-01T09:54:46;19.55;;;13.10;;
26516;SDS011;14190;51.342;6.338;2023-03-01T10:02:45;20.15;;;12.75;;
26516;SDS011;14190;51.342;6.338;2023-03-01T10:08:06;21.27;;;12.70;;
26516;SDS011;14190;51.342;6.338;2023-03-01T10:10:36;18.05;;;12.68;;
26516;SDS011;14190;51.342;6.338;2023-03-01T10:13:10;23.20;;;13.35;;
26516;SDS011;14190;51.342;6.338;2023-03-01T10:15:34;17.52;;;12.50;;
26516;SDS011;14190;51.342;6.338;2023-03-01T10:18:09;21.00;;;13.72;;
26516;SDS011;14190;51.342;6.338;2023-03-01T10:23:09;22.13;;;14.38;;
26516;SDS011;14190;51.342;6.338;2023-03-01T10:25:47;19.42;;;13.08;;
26516;SDS011;14190;51.342;6.338;2023-03-01T10:28:17;26.65;;;12.93;;
26516;SDS011;14190;51.342;6.338;2023-03-01T10:30:44;22.50;;;13.65;;
26516;SDS011;14190;51.342;6.338;2023-03-01T10:33:20;19.45;;;11.45;;
26516;SDS011;14190;51.342;6.338;2023-03-01T10:35:46;19.35;;;14.03;;
26516;SDS011;14190;51.342;6.338;2023-03-01T10:38:15;27.42;;;13.80;;
26516;SDS011;14190;51.342;6.338;2023-03-01T10:40:51;21.35;;;13.68;;
26516;SDS011;14190;51.342;6.338;2023-03-01T10:43:18;24.77;;;13.62;;
26516;SDS011;14190;51.342;6.338;2023-03-01T10:45:46;22.93;;;13.60;;
26516;SDS011;14190;51.342;6.338;2023-03-01T10:48:17;21.05;;;13.15;;
26516;SDS011;14190;51.342;6.338;2023-03-01T10:50:46;25.12;;;15.10;;
26516;SDS011;14190;51.342;6.338;2023-03-01T10:53:24;25.08;;;14.58;;
26516;SDS011;14190;51.342;6.338;2023-03-01T10:56:01;24.67;;;13.80;;
26516;SDS011;14190;51.342;6.338;2023-03-01T10:58:25;21.62;;;12.45;;
26516;SDS011;14190;51.342;6.338;2023-03-01T11:00:56;27.27;;;14.45;;
26516;SDS011;14190;51.342;6.338;2023-03-01T11:03:25;26.97;;;14.13;;
26516;SDS011;14190;51.342;6.338;2023-03-01T11:05:57;27.90;;;13.58;;
26516;SDS011;14190;51.342;6.338;2023-03-01T11:08:38;22.85;;;13.65;;
26516;SDS011;14190;51.342;6.338;2023-03-01T11:11:18;22.73;;;12.15;;
26516;SDS011;14190;51.342;6.338;2023-03-01T11:13:35;22.93;;;13.10;;
26516;SDS011;14190;51.342;6.338;2023-03-01T11:16:05;27.73;;;13.93;;
26516;SDS011;14190;51.342;6.338;2023-03-01T11:18:32;24.95;;;13.60;;
26516;SDS011;14190;51.342;6.338;2023-03-01T11:20:59;19.25;;;11.95;;
26516;SDS011;14190;51.342;6.338;2023-03-01T11:23:28;24.35;;;12.93;;
26516;SDS011;14190;51.342;6.338;2023-03-01T11:25:57;20.80;;;12.23;;
26516;SDS011;14190;51.342;6.338;2023-03-01T11:28:25;19.52;;;12.80;;
26516;SDS011;14190;51.342;6.338;2023-03-01T11:30:55;24.12;;;14.93;;
26516;SDS011;14190;51.342;6.338;2023-03-01T11:36:03;20.88;;;12.68;;
26516;SDS011;14190;51.342;6.338;2023-03-01T11:38:30;20.90;;;13.10;;
26516;SDS011;14190;51.342;6.338;2023-03-01T11:43:59;20.40;;;12.00;;
26516;SDS011;14190;51.342;6.338;2023-03-01T11:51:52;22.65;;;12.15;;
26516;SDS011;14190;51.342;6.338;2023-03-01T11:54:26;20.55;;;12.45;;
26516;SDS011;14190;51.342;6.338;2023-03-01T11:56:55;22.90;;;12.47;;
26516;SDS011;14190;51.342;6.338;2023-03-01T12:04:36;20.85;;;11.53;;
26516;SDS011;14190;51.342;6.338;2023-03-01T12:17:36;20.48;;;10.03;;
26516;SDS011;14190;51.342;6.338;2023-03-01T12:30:33;17.42;;;8.98;;
26516;SDS011;14190;51.342;6.338;2023-03-01T12:33:05;14.78;;;8.13;;
26516;SDS011;14190;51.342;6.338;2023-03-01T12:35:36;14.03;;;8.65;;
26516;SDS011;14190;51.342;6.338;2023-03-01T12:40:33;22.48;;;8.60;;
26516;SDS011;14190;51.342;6.338;2023-03-01T12:45:48;15.85;;;10.58;;
26516;SDS011;14190;51.342;6.338;2023-03-01T12:50:46;17.42;;;10.80;;
26516;SDS011;14190;51.342;6.338;2023-03-01T12:53:17;27.13;;;10.53;;
26516;SDS011;14190;51.342;6.338;2023-03-01T12:55:42;20.70;;;10.63;;
26516;SDS011;14190;51.342;6.338;2023-03-01T13:00:59;16.12;;;10.65;;
26516;SDS011;14190;51.342;6.338;2023-03-01T13:03:25;17.35;;;9.40;;
26516;SDS011;14190;51.342;6.338;2023-03-01T13:11:01;17.60;;;9.40;;
26516;SDS011;14190;51.342;6.338;2023-03-01T13:13:29;16.20;;;9.00;;
26516;SDS011;14190;51.342;6.338;2023-03-01T13:15:57;15.60;;;9.58;;
26516;SDS011;14190;51.342;6.338;2023-03-01T13:20:54;20.25;;;9.48;;
26516;SDS011;14190;51.342;6.338;2023-03-01T13:23:24;18.12;;;9.25;;
26516;SDS011;14190;51.342;6.338;2023-03-01T13:31:03;11.85;;;7.37;;
26516;SDS011;14190;51.342;6.338;2023-03-01T13:36:02;13.15;;;8.78;;
26516;SDS011;14190;51.342;6.338;2023-03-01T13:38:54;12.18;;;8.05;;
26516;SDS011;14190;51.342;6.338;2023-03-01T13:41:24;14.75;;;9.23;;
26516;SDS011;14190;51.342;6.338;2023-03-01T13:43:46;13.38;;;7.95;;
26516;SDS011;14190;51.342;6.338;2023-03-01T13:46:17;14.83;;;8.08;;
26516;SDS011;14190;51.342;6.338;2023-03-01T13:48:50;21.50;;;8.15;;
26516;SDS011;14190;51.342;6.338;2023-03-01T13:51:14;13.80;;;8.18;;
26516;SDS011;14190;51.342;6.338;2023-03-01T13:53:43;12.37;;;7.75;;
26516;SDS011;14190;51.342;6.338;2023-03-01T13:56:12;14.95;;;8.85;;
26516;SDS011;14190;51.342;6.338;2023-03-01T13:58:47;14.05;;;8.38;;
26516;SDS011;14190;51.342;6.338;2023-03-01T14:01:31;14.63;;;8.40;;
26516;SDS011;14190;51.342;6.338;2023-03-01T14:03:59;13.70;;;8.33;;
26516;SDS011;14190;51.342;6.338;2023-03-01T14:06:33;13.18;;;8.33;;
26516;SDS011;14190;51.342;6.338;2023-03-01T14:09:22;18.62;;;9.18;;
26516;SDS011;14190;51.342;6.338;2023-03-01T14:11:48;13.20;;;8.60;;
26516;SDS011;14190;51.342;6.338;2023-03-01T14:19:12;15.43;;;9.83;;
26516;SDS011;14190;51.342;6.338;2023-03-01T14:21:36;13.90;;;8.70;;
26516;SDS011;14190;51.342;6.338;2023-03-01T14:24:04;16.17;;;9.05;;
26516;SDS011;14190;51.342;6.338;2023-03-01T14:26:31;13.32;;;8.45;;
26516;SDS011;14190;51.342;6.338;2023-03-01T14:29:00;15.55;;;9.13;;
26516;SDS011;14190;51.342;6.338;2023-03-01T14:33:57;16.17;;;9.38;;
26516;SDS011;14190;51.342;6.338;2023-03-01T14:36:28;12.85;;;8.43;;
26516;SDS011;14190;51.342;6.338;2023-03-01T14:38:56;18.62;;;9.08;;
26516;SDS011;14190;51.342;6.338;2023-03-01T14:41:29;14.63;;;9.68;;
26516;SDS011;14190;51.342;6.338;2023-03-01T14:44:03;14.47;;;7.60;;
26516;SDS011;14190;51.342;6.338;2023-03-01T14:46:37;19.25;;;9.58;;
26516;SDS011;14190;51.342;6.338;2023-03-01T14:48:57;16.15;;;9.45;;
26516;SDS011;14190;51.342;6.338;2023-03-01T14:51:25;15.95;;;9.20;;
26516;SDS011;14190;51.342;6.338;2023-03-01T14:53:52;16.30;;;9.28;;
26516;SDS011;14190;51.342;6.338;2023-03-01T14:56:19;18.85;;;9.23;;
26516;SDS011;14190;51.342;6.338;2023-03-01T14:58:50;14.90;;;8.88;;
26516;SDS011;14190;51.342;6.338;2023-03-01T15:01:16;19.00;;;9.98;;
26516;SDS011;14190;51.342;6.338;2023-03-01T15:03:49;22.55;;;9.93;;
26516;SDS011;14190;51.342;6.338;2023-03-01T15:06:20;16.52;;;9.33;;
26516;SDS011;14190;51.342;6.338;2023-03-01T15:08:50;15.43;;;9.30;;
26516;SDS011;14190;51.342;6.338;2023-03-01T15:11:27;22.85;;;10.45;;
26516;SDS011;14190;51.342;6.338;2023-03-01T15:13:51;17.62;;;9.75;;
26516;SDS011;14190;51.342;6.338;2023-03-01T15:16:29;19.32;;;10.32;;
26516;SDS011;14190;51.342;6.338;2023-03-01T15:19:15;17.00;;;10.82;;
26516;SDS011;14190;51.342;6.338;2023-03-01T15:21:36;17.05;;;9.60;;
26516;SDS011;14190;51.342;6.338;2023-03-01T15:24:17;17.02;;;8.78;;
26516;SDS011;14190;51.342;6.338;2023-03-01T15:26:39;18.35;;;10.50;;
26516;SDS011;14190;51.342;6.338;2023-03-01T15:29:10;18.70;;;10.75;;
26516;SDS011;14190;51.342;6.338;2023-03-01T15:31:36;14.40;;;9.48;;
26516;SDS011;14190;51.342;6.338;2023-03-01T15:34:09;17.57;;;10.38;;
26516;SDS011;14190;51.342;6.338;2023-03-01T15:36:44;21.30;;;10.32;;
26516;SDS011;14190;51.342;6.338;2023-03-01T15:41:59;18.05;;;10.18;;
26516;SDS011;14190;51.342;6.338;2023-03-01T15:44:28;20.48;;;10.98;;
26516;SDS011;14190;51.342;6.338;2023-03-01T15:46:56;20.17;;;11.18;;
26516;SDS011;14190;51.342;6.338;2023-03-01T15:51:53;21.62;;;10.78;;
26516;SDS011;14190;51.342;6.338;2023-03-01T15:54:22;14.20;;;9.63;;
26516;SDS011;14190;51.342;6.338;2023-03-01T15:56:50;17.32;;;10.23;;
26516;SDS011;14190;51.342;6.338;2023-03-01T15:59:18;15.80;;;9.88;;
26516;SDS011;14190;51.342;6.338;2023-03-01T16:01:45;14.30;;;9.45;;
26516;SDS011;14190;51.342;6.338;2023-03-01T16:04:16;15.93;;;10.05;;
26516;SDS011;14190;51.342;6.338;2023-03-01T16:06:46;18.25;;;9.03;;
26516;SDS011;14190;51.342;6.338;2023-03-01T16:09:15;15.03;;;9.70;;
26516;SDS011;14190;51.342;6.338;2023-03-01T16:11:42;14.07;;;10.13;;
26516;SDS011;14190;51.342;6.338;2023-03-01T16:14:09;16.27;;;10.30;;